Time;durP1;ratioP1;P1;durP2;ratioP2;P2;SDS_P1;SDS_P2;PMS_P1;PMS_P2;Temp;Humidity;BMP_temperature;BMP_pressure;BME280_temperature;BME280_humidity;BME280_pressure;Samples;Min_cycle;Max_cycle;Signal;HPM_P1;HPM_P2
2021/06/02 00:00:11;;;;;;;8.45;3.72;;;;;;;19.57;42.33;101372.50;5049875;28;20053;-52
2021/06/02 00:02:47;;;;;;;6.32;3.58;;;;;;;19.57;42.50;101373.31;5047597;28;20459;-53
2021/06/02 00:05:16;;;;;;;6.10;3.45;;;;;;;19.59;42.43;101378.53;5041002;28;20108;-49
2021/06/02 00:07:44;;;;;;;6.57;3.70;;;;;;;19.54;42.62;101373.97;5069098;28;20045;-51
2021/06/02 00:10:13;;;;;;;10.13;3.50;;;;;;;19.53;42.61;101375.09;5054220;28;20033;-49
2021/06/02 00:12:41;;;;;;;6.00;3.42;;;;;;;19.55;42.53;101375.63;5048711;28;20115;-50
2021/06/02 00:15:10;;;;;;;13.27;4.13;;;;;;;19.53;42.82;101366.81;5052628;28;20467;-53
2021/06/02 00:17:38;;;;;;;7.00;4.05;;;;;;;19.47;42.90;101370.00;5054051;28;20118;-51
2021/06/02 00:20:07;;;;;;;10.63;3.75;;;;;;;19.44;43.03;101365.94;5054066;28;20095;-48
2021/06/02 00:22:35;;;;;;;8.40;3.78;;;;;;;19.42;43.13;101361.84;5053722;28;20049;-49
2021/06/02 00:25:05;;;;;;;11.43;4.10;;;;;;;19.37;43.19;101362.78;5053923;28;20044;-48
2021/06/02 00:27:35;;;;;;;12.32;3.83;;;;;;;19.32;43.29;101366.50;5053994;28;20488;-48
2021/06/02 00:30:06;;;;;;;7.43;4.10;;;;;;;19.29;43.45;101371.81;5053995;28;20056;-49
2021/06/02 00:32:34;;;;;;;8.45;3.90;;;;;;;19.24;43.60;101367.25;5053765;28;20483;-48
2021/06/02 00:35:03;;;;;;;7.72;4.55;;;;;;;19.22;43.70;101368.69;5068730;28;20048;-49
2021/06/02 00:37:38;;;;;;;;;;;;;;;19.16;43.72;101368.81;5053773;28;20045;-47
2021/06/02 00:40:08;;;;;;;8.25;4.18;;;;;;;19.10;44.11;101366.50;5052168;28;20351;-50
2021/06/02 00:42:36;;;;;;;9.65;4.63;;;;;;;19.06;44.06;101368.25;5053606;28;20072;-49
2021/06/02 00:45:04;;;;;;;7.93;4.40;;;;;;;19.04;44.21;101360.25;5053786;28;20037;-49
2021/06/02 00:47:37;;;;;;;7.43;4.18;;;;;;;19.02;44.44;101356.19;5053244;28;20510;-49
2021/06/02 00:50:06;;;;;;;7.07;4.00;;;;;;;19.05;44.48;101356.38;5053189;28;20044;-51
2021/06/02 00:52:35;;;;;;;7.53;3.80;;;;;;;19.10;44.50;101359.03;5053179;28;20503;-50
2021/06/02 00:55:03;;;;;;;7.60;3.90;;;;;;;19.05;44.50;101348.09;5040342;28;20093;-49
2021/06/02 00:57:32;;;;;;;7.22;4.20;;;;;;;18.95;44.88;101356.59;5053149;28;20087;-50
2021/06/02 01:00:10;;;;;;;6.90;4.03;;;;;;;18.87;45.10;101354.59;5052774;28;20076;-49
2021/06/02 01:02:41;;;;;;;8.70;4.18;;;;;;;18.81;45.35;101355.81;5053273;28;20102;-50
2021/06/02 01:05:09;;;;;;;6.28;4.18;;;;;;;18.77;45.48;101355.63;5051311;28;20115;-53
2021/06/02 01:07:37;;;;;;;8.48;4.57;;;;;;;18.76;45.49;101350.38;5053373;28;20037;-49
2021/06/02 01:10:06;;;;;;;7.68;4.35;;;;;;;18.74;45.60;101345.19;5052783;28;20040;-49
2021/06/02 01:12:33;;;;;;;9.10;4.32;;;;;;;18.68;45.63;101347.22;5052986;28;20403;-49
2021/06/02 01:15:01;;;;;;;7.65;4.32;;;;;;;18.62;46.01;101356.78;5052700;28;20067;-51
2021/06/02 01:17:31;;;;;;;8.90;4.38;;;;;;;18.55;46.43;101356.38;5052877;28;20512;-53
2021/06/02 01:20:01;;;;;;;8.35;4.18;;;;;;;18.47;46.61;101362.59;5052414;28;20045;-50
2021/06/02 01:22:33;;;;;;;9.57;4.40;;;;;;;18.38;46.82;101359.75;5052845;28;20033;-48
2021/06/02 01:25:13;;;;;;;8.30;4.28;;;;;;;18.43;46.84;101361.59;5052761;28;20045;-49
2021/06/02 01:27:41;;;;;;;7.50;4.20;;;;;;;18.50;46.63;101357.28;5052828;28;20037;-52
2021/06/02 01:30:15;;;;;;;8.32;4.45;;;;;;;18.58;46.32;101358.50;5053565;28;20049;-49
2021/06/02 01:33:00;;;;;;;9.32;4.60;;;;;;;18.61;46.42;101362.59;5053115;28;20069;-49
2021/06/02 01:35:51;;;;;;;7.18;4.55;;;;;;;18.50;46.42;101368.34;5068048;28;20037;-52
2021/06/02 01:38:38;;;;;;;9.07;4.35;;;;;;;18.37;46.99;101360.88;5042970;28;20025;-48
2021/06/02 01:41:24;;;;;;;7.60;4.15;;;;;;;18.34;47.04;101355.16;5053087;28;20120;-51
2021/06/02 01:44:03;;;;;;;7.22;4.20;;;;;;;18.37;46.95;101357.31;5052648;28;20041;-53
2021/06/02 01:46:56;;;;;;;6.55;4.13;;;;;;;18.40;46.87;101362.19;5039363;28;20080;-54
2021/06/02 01:49:35;;;;;;;8.85;4.68;;;;;;;18.39;46.81;101355.88;5067037;28;20424;-49
2021/06/02 01:52:11;;;;;;;5.85;4.00;;;;;;;18.37;47.04;101357.31;5052279;28;20049;-49
2021/06/02 01:55:17;;;;;;;8.02;4.10;;;;;;;18.36;47.13;101361.19;5052236;28;20623;-51
2021/06/02 01:58:05;;;;;;;7.78;4.28;;;;;;;18.30;47.08;101361.31;5052186;28;20045;-51
2021/06/02 02:01:01;;;;;;;8.73;4.40;;;;;;;18.26;47.35;101363.03;5050071;28;20099;-49
2021/06/02 02:04:06;;;;;;;7.68;4.15;;;;;;;18.18;47.47;101360.97;5051758;28;20514;-47
2021/06/02 02:06:37;;;;;;;10.27;4.20;;;;;;;18.10;48.04;101353.44;5052042;28;20052;-48
2021/06/02 02:09:35;;;;;;;9.13;4.22;;;;;;;18.08;47.86;101350.97;5067008;28;20065;-50
2021/06/02 02:12:39;;;;;;;9.65;4.57;;;;;;;18.03;48.23;101351.06;5051883;28;20114;-53
2021/06/02 02:15:25;;;;;;;7.72;4.20;;;;;;;18.03;48.14;101341.97;5049688;28;20045;-50
2021/06/02 02:18:21;;;;;;;8.80;4.47;;;;;;;18.05;48.33;101345.25;5049197;28;20095;-49
2021/06/02 02:21:16;;;;;;;8.48;4.20;;;;;;;18.05;48.44;101346.06;5033272;28;20810;-49
2021/06/02 02:23:54;;;;;;;8.63;4.40;;;;;;;17.94;48.58;101354.84;5049690;28;20053;-49
2021/06/02 02:26:49;;;;;;;8.43;4.40;;;;;;;17.88;48.91;101343.91;5049718;28;20095;-48
2021/06/02 02:29:50;;;;;;;8.88;4.30;;;;;;;17.88;49.11;101346.66;5049545;28;20065;-50
2021/06/02 02:32:53;;;;;;;9.50;4.70;;;;;;;17.86;49.22;101345.34;5049118;28;20057;-49
2021/06/02 02:35:39;;;;;;;12.68;4.60;;;;;;;17.82;48.91;101341.53;5035563;28;20079;-49
2021/06/02 02:38:10;;;;;;;10.82;4.25;;;;;;;17.76;49.48;101340.81;5036977;28;20107;-47
2021/06/02 02:41:17;;;;;;;8.60;4.85;;;;;;;17.62;50.02;101342.72;5053419;28;20061;-50
2021/06/02 02:43:53;;;;;;;11.63;4.72;;;;;;;17.54;50.55;101343.41;4994278;28;20046;-49
2021/06/02 02:46:54;;;;;;;8.10;4.40;;;;;;;17.58;50.35;101347.19;4977669;28;20058;-49
2021/06/02 02:49:36;;;;;;;8.00;4.47;;;;;;;17.66;50.07;101350.06;4978128;28;20085;-49
2021/06/02 02:52:37;;;;;;;8.27;4.43;;;;;;;17.62;50.35;101349.03;4997510;28;20497;-50
2021/06/02 02:55:12;;;;;;;8.65;4.75;;;;;;;17.61;50.30;101352.09;5013474;28;20408;-47
2021/06/02 02:57:54;;;;;;;9.93;4.20;;;;;;;17.64;50.40;101346.78;4997531;28;20111;-52
2021/06/02 03:00:31;;;;;;;6.57;4.10;;;;;;;17.68;50.10;101349.78;4996589;28;20057;-47
2021/06/02 03:03:09;;;;;;;9.38;5.38;;;;;;;17.74;50.23;101350.50;4997396;28;20054;-49
2021/06/02 03:05:45;;;;;;;9.00;5.20;;;;;;;17.69;50.52;101354.16;5013410;28;20053;-47
2021/06/02 03:08:14;;;;;;;;;;;;;;;17.62;50.75;101360.06;4997689;28;20045;-50
2021/06/02 03:10:51;;;;;;;12.30;5.20;;;;;;;17.56;50.81;101358.53;4996846;28;19921;-48
2021/06/02 03:13:43;;;;;;;11.52;5.20;;;;;;;17.46;51.34;101362.28;5013488;28;20496;-49
2021/06/02 03:16:17;;;;;;;9.85;4.97;;;;;;;17.41;51.32;101365.13;5002225;28;20042;-50
2021/06/02 03:18:48;;;;;;;11.52;5.55;;;;;;;17.38;51.91;101365.69;5032486;28;20107;-51
2021/06/02 03:21:39;;;;;;;12.15;5.10;;;;;;;17.36;51.89;101367.94;5070622;28;20086;-50
2021/06/02 03:24:22;;;;;;;9.35;5.20;;;;;;;17.36;51.80;101362.41;5054810;28;20048;-50
2021/06/02 03:27:01;;;;;;;8.68;4.47;;;;;;;17.44;51.80;101360.94;5054971;28;20522;-48
2021/06/02 03:30:08;;;;;;;9.70;5.40;;;;;;;17.52;51.66;101357.47;5069936;28;20053;-49
2021/06/02 03:32:47;;;;;;;11.25;6.10;;;;;;;17.43;51.89;101351.84;5052468;28;20494;-49
2021/06/02 03:35:52;;;;;;;10.88;6.07;;;;;;;17.31;52.34;101348.72;5036190;28;20061;-50
2021/06/02 03:38:22;;;;;;;10.98;6.25;;;;;;;17.26;52.51;101346.06;5052587;28;20053;-49
2021/06/02 03:41:11;;;;;;;14.73;7.00;;;;;;;17.21;52.78;101351.66;5035434;28;20076;-50
2021/06/02 03:43:43;;;;;;;16.67;7.35;;;;;;;17.15;53.06;101347.34;5035916;28;20053;-51
2021/06/02 03:46:44;;;;;;;13.93;6.30;;;;;;;17.15;52.99;101352.84;5052288;28;20128;-49
2021/06/02 03:49:15;;;;;;;11.55;5.82;;;;;;;17.19;52.86;101351.13;5052146;28;20057;-49
2021/06/02 03:51:50;;;;;;;12.15;7.15;;;;;;;17.23;52.65;101349.44;5035643;28;20076;-51
2021/06/02 03:54:29;;;;;;;10.95;6.80;;;;;;;17.25;52.92;101353.53;5052104;28;20403;-49
2021/06/02 03:57:02;;;;;;;10.40;6.35;;;;;;;17.31;52.39;101348.72;5035878;28;20156;-50
2021/06/02 03:59:40;;;;;;;14.52;6.20;;;;;;;17.38;52.46;101354.69;5051366;28;20061;-50
2021/06/02 04:02:35;;;;;;;11.32;6.18;;;;;;;17.43;52.34;101354.59;5035698;28;20506;-49
2021/06/02 04:05:12;;;;;;;;;;;;;;;17.50;52.06;101351.44;5052295;28;20033;-48
2021/06/02 04:08:20;;;;;;;10.75;6.13;;;;;;;17.53;51.95;101356.34;5052115;28;19955;-48
2021/06/02 04:11:15;;;;;;;8.43;5.28;;;;;;;17.57;51.98;101343.63;5037788;28;20124;-47
2021/06/02 04:13:58;;;;;;;10.77;6.40;;;;;;;17.64;51.94;101351.50;5068872;28;20049;-48
2021/06/02 04:16:38;;;;;;;11.85;5.85;;;;;;;17.69;51.92;101351.41;5054036;28;20048;-51
2021/06/02 04:19:11;;;;;;;13.52;5.93;;;;;;;17.68;51.95;101349.78;5053475;28;20053;-45
2021/06/02 04:21:41;;;;;;;11.60;6.00;;;;;;;17.72;51.79;101344.47;5069494;28;20503;-49
2021/06/02 04:24:14;;;;;;;13.00;6.65;;;;;;;17.76;51.97;101351.00;5053811;28;20048;-47
2021/06/02 04:26:42;;;;;;;8.55;5.55;;;;;;;17.73;51.97;101340.59;5053960;28;20067;-46
2021/06/02 04:29:12;;;;;;;11.77;6.82;;;;;;;17.73;52.09;101335.91;5052142;28;20071;-47
2021/06/02 04:31:54;;;;;;;8.27;5.78;;;;;;;17.72;52.17;101337.00;5053958;28;20048;-47
2021/06/02 04:34:24;;;;;;;12.63;6.00;;;;;;;17.67;52.29;101334.34;5053449;28;20090;-46
2021/06/02 04:36:53;;;;;;;9.30;6.05;;;;;;;17.67;52.51;101331.59;5053650;28;20068;-48
2021/06/02 04:39:23;;;;;;;9.35;5.97;;;;;;;17.72;52.55;101328.75;5053179;28;20041;-48
2021/06/02 04:41:54;;;;;;;14.05;6.50;;;;;;;17.78;52.46;101330.28;5053343;28;20609;-49
2021/06/02 04:44:23;;;;;;;12.90;6.90;;;;;;;17.80;52.44;101330.84;5053268;28;20388;-49
2021/06/02 04:46:51;;;;;;;12.73;7.50;;;;;;;17.81;52.08;101326.94;5053741;28;20072;-52
2021/06/02 04:49:19;;;;;;;12.15;6.80;;;;;;;17.80;52.10;101330.84;5053293;28;20076;-51
2021/06/02 04:52:02;;;;;;;10.98;6.35;;;;;;;17.82;52.33;101325.84;5068669;28;20067;-48
2021/06/02 04:55:02;;;;;;;14.65;7.50;;;;;;;17.86;51.96;101326.03;5053010;28;20369;-49
2021/06/02 04:58:07;;;;;;;13.35;6.68;;;;;;;17.88;51.89;101324.59;5047899;28;20076;-48
2021/06/02 05:00:50;;;;;;;13.15;7.07;;;;;;;17.93;52.09;101331.16;5044093;28;20411;-53
2021/06/02 05:03:28;;;;;;;10.90;6.53;;;;;;;17.98;51.66;101339.31;5052841;28;20112;-54
2021/06/02 05:05:58;;;;;;;11.55;5.80;;;;;;;18.04;51.36;101335.34;5048388;28;20561;-50
2021/06/02 05:08:51;;;;;;;12.43;6.60;;;;;;;18.07;50.75;101334.75;5052197;28;20110;-51
2021/06/02 05:11:24;;;;;;;9.57;6.15;;;;;;;18.09;50.95;101343.53;5067727;28;20048;-52
2021/06/02 05:14:07;;;;;;;13.98;7.18;;;;;;;18.07;51.10;101338.31;5052682;28;20119;-53
2021/06/02 05:17:03;;;;;;;13.10;7.25;;;;;;;18.03;51.52;101339.22;5053180;28;20052;-52
2021/06/02 05:22:46;;;;;;;11.52;6.93;;;;;;;18.02;51.51;101352.19;5052850;28;20580;-49
2021/06/02 05:25:33;;;;;;;12.63;7.85;;;;;;;18.04;51.59;101351.91;5067738;28;20067;-53
2021/06/02 05:28:39;;;;;;;10.95;7.18;;;;;;;18.00;51.11;101354.44;5048725;28;20107;-50
2021/06/02 05:31:44;;;;;;;11.82;7.43;;;;;;;18.01;51.18;101360.75;5038886;28;20064;-51
2021/06/02 05:34:42;;;;;;;10.30;7.22;;;;;;;18.00;51.03;101348.13;5052561;28;20068;-50
2021/06/02 05:37:40;;;;;;;10.38;6.45;;;;;;;18.05;50.97;101351.56;5052435;28;20049;-53
2021/06/02 05:40:30;;;;;;;12.48;7.57;;;;;;;18.13;50.48;101350.03;5040947;28;20078;-47
2021/06/02 05:43:09;;;;;;;10.88;6.55;;;;;;;18.18;50.92;101349.13;5052284;28;20033;-49
2021/06/02 05:46:15;;;;;;;11.35;7.28;;;;;;;18.20;50.76;101355.97;5052725;28;20495;-51
2021/06/02 05:49:12;;;;;;;16.67;8.20;;;;;;;18.18;51.40;101355.47;5043164;28;20059;-50
2021/06/02 05:51:51;;;;;;;14.65;8.80;;;;;;;18.15;51.92;101356.06;5049869;28;20065;-53
2021/06/02 05:54:45;;;;;;;15.48;7.20;;;;;;;18.19;51.91;101351.59;5049414;28;20057;-50
2021/06/02 05:57:31;;;;;;;19.02;8.68;;;;;;;18.21;52.05;101354.06;5033686;28;20044;-50
2021/06/02 06:00:32;;;;;;;11.38;7.15;;;;;;;18.25;51.56;101353.09;5049358;28;20114;-50
2021/06/02 06:03:30;;;;;;;16.50;7.65;;;;;;;18.34;51.81;101352.41;5049499;28;20049;-48
2021/06/02 06:06:09;;;;;;;10.98;7.03;;;;;;;18.36;51.83;101353.72;5049790;28;20179;-49
2021/06/02 06:08:55;;;;;;;13.38;6.88;;;;;;;18.38;51.73;101348.72;5049085;28;20072;-50
2021/06/02 06:11:44;;;;;;;22.38;8.55;;;;;;;18.40;51.40;101353.91;5049809;28;20514;-51
2021/06/02 06:14:43;;;;;;;13.52;7.07;;;;;;;18.42;51.42;101357.19;5049681;28;20036;-50
2021/06/02 06:17:36;;;;;;;11.18;6.25;;;;;;;18.45;51.23;101346.38;5049415;28;20440;-50
2021/06/02 06:20:22;;;;;;;17.80;7.80;;;;;;;18.47;51.25;101346.03;5049670;28;20064;-47
2021/06/02 06:23:34;;;;;;;11.60;6.53;;;;;;;18.48;51.56;101348.50;5049439;28;20075;-49
2021/06/02 06:26:16;;;;;;;15.48;7.70;;;;;;;18.51;51.37;101347.88;4990442;28;20541;-50
2021/06/02 06:28:53;;;;;;;11.20;7.07;;;;;;;18.55;51.44;101359.13;4988331;28;20073;-50
2021/06/02 06:31:28;;;;;;;16.92;8.52;;;;;;;18.61;51.40;101355.13;5009904;28;20042;-48
2021/06/02 06:33:57;;;;;;;18.83;8.20;;;;;;;18.66;50.71;101360.53;5009689;28;20073;-48
2021/06/02 06:36:25;;;;;;;16.30;7.97;;;;;;;18.68;51.25;101357.47;4993845;28;20046;-47
2021/06/02 06:39:02;;;;;;;15.20;7.20;;;;;;;18.72;50.92;101359.28;5009328;28;20046;-47
2021/06/02 06:41:33;;;;;;;11.48;7.07;;;;;;;18.76;50.77;101354.03;4997467;28;20049;-49
2021/06/02 06:44:02;;;;;;;15.32;7.20;;;;;;;18.82;50.16;101350.00;5009658;28;20053;-48
2021/06/02 06:46:30;;;;;;;14.15;7.57;;;;;;;18.86;50.09;101347.44;4993670;28;20100;-50
2021/06/02 06:48:59;;;;;;;18.35;7.10;;;;;;;18.89;49.30;101352.34;5009310;28;20144;-48
2021/06/02 06:51:29;;;;;;;16.88;6.05;;;;;;;18.94;50.46;101355.78;4986114;28;20050;-51
2021/06/02 06:53:58;;;;;;;14.88;6.97;;;;;;;19.02;49.71;101348.69;4993472;28;20050;-52
2021/06/02 06:56:27;;;;;;;28.35;9.30;;;;;;;19.06;50.30;101351.66;4993684;28;20042;-47
2021/06/02 06:58:57;;;;;;;15.40;7.60;;;;;;;19.09;49.42;101348.28;5013772;28;20038;-48
2021/06/02 07:01:24;;;;;;;14.52;7.63;;;;;;;19.10;49.36;101347.97;5051891;28;20037;-48
2021/06/02 07:03:54;;;;;;;15.35;8.10;;;;;;;19.12;48.86;101340.19;5050191;28;20029;-46
2021/06/02 07:06:22;;;;;;;16.27;7.90;;;;;;;19.15;49.45;101339.56;5051338;28;20565;-48
2021/06/02 07:08:50;;;;;;;15.27;8.38;;;;;;;19.19;49.34;101338.91;5050008;28;20037;-46
2021/06/02 07:11:19;;;;;;;11.82;6.82;;;;;;;19.21;48.52;101343.00;4351174;28;10000829;-49
2021/06/02 07:13:47;;;;;;;13.70;7.03;;;;;;;19.22;48.69;101346.56;5064515;28;20049;-49
2021/06/02 07:16:16;;;;;;;12.45;7.47;;;;;;;19.23;48.91;101345.47;5064883;28;20068;-50
2021/06/02 07:18:48;;;;;;;11.38;7.15;;;;;;;19.25;48.95;101334.91;5049352;28;20051;-48
2021/06/02 07:21:19;;;;;;;13.30;7.90;;;;;;;19.29;49.04;101339.50;5066038;28;20048;-49
2021/06/02 07:23:47;;;;;;;10.82;6.28;;;;;;;19.32;48.84;101344.41;5052617;28;20051;-50
2021/06/02 07:26:14;;;;;;;13.57;6.80;;;;;;;19.36;48.66;101339.03;5048435;28;20137;-49
2021/06/02 07:29:08;;;;;;;12.07;6.85;;;;;;;19.41;48.18;101338.09;5050944;28;20403;-50
2021/06/02 07:31:35;;;;;;;20.40;7.18;;;;;;;19.43;48.31;101339.41;5054804;28;20076;-49
2021/06/02 07:34:04;;;;;;;13.27;7.15;;;;;;;19.46;48.49;101335.19;5054691;28;20072;-52
2021/06/02 07:36:32;;;;;;;13.13;7.85;;;;;;;19.50;47.11;101334.25;5054937;28;20079;-52
2021/06/02 07:39:00;;;;;;;11.00;7.15;;;;;;;19.54;46.87;101339.97;5054419;28;20438;-55
2021/06/02 07:41:28;;;;;;;12.60;7.35;;;;;;;19.61;46.57;101339.53;5054928;28;20045;-49
2021/06/02 07:43:56;;;;;;;10.23;7.07;;;;;;;19.65;46.83;101332.22;5055150;28;20048;-52
2021/06/02 07:46:23;;;;;;;14.60;7.57;;;;;;;19.68;46.77;101328.88;5070399;28;20099;-52
2021/06/02 07:48:51;;;;;;;15.77;7.32;;;;;;;19.70;46.72;101332.13;5054830;28;20234;-51
2021/06/02 07:51:19;;;;;;;9.43;6.63;;;;;;;19.74;46.54;101330.34;5053912;28;20045;-49
2021/06/02 07:53:47;;;;;;;11.63;6.85;;;;;;;19.77;46.23;101332.47;5054699;28;20041;-49
2021/06/02 07:56:14;;;;;;;11.00;7.25;;;;;;;19.78;45.89;101329.41;5054464;28;20094;-50
2021/06/02 07:58:42;;;;;;;14.85;7.10;;;;;;;19.82;46.39;101329.59;5049561;28;20515;-48
2021/06/02 08:01:09;;;;;;;14.65;7.95;;;;;;;19.89;46.38;101337.41;5049255;28;20528;-49
2021/06/02 08:03:37;;;;;;;12.20;7.50;;;;;;;19.95;46.23;101333.38;5054331;28;20037;-46
2021/06/02 08:06:05;;;;;;;12.88;7.15;;;;;;;19.98;46.19;101339.09;5053864;28;20067;-48
2021/06/02 08:08:32;;;;;;;13.20;7.30;;;;;;;20.06;45.91;101342.22;5040081;28;20450;-48
2021/06/02 08:11:00;;;;;;;10.50;6.82;;;;;;;20.12;44.74;101338.97;5054147;28;20040;-48
2021/06/02 08:13:28;;;;;;;18.85;7.47;;;;;;;20.15;45.36;101352.16;5054003;28;20064;-49
2021/06/02 08:15:56;;;;;;;17.70;6.95;;;;;;;20.23;44.82;101350.59;5053973;28;20438;-50
2021/06/02 08:18:23;;;;;;;15.35;7.15;;;;;;;20.31;44.07;101346.22;5053827;28;20045;-48
2021/06/02 08:20:51;;;;;;;13.88;7.35;;;;;;;20.43;43.81;101349.16;5053430;28;20033;-48
2021/06/02 08:23:19;;;;;;;14.05;7.05;;;;;;;20.50;44.54;101354.25;5053998;28;20045;-49
2021/06/02 08:25:46;;;;;;;12.73;7.00;;;;;;;20.54;44.35;101349.66;5053640;28;20098;-48
2021/06/02 08:28:14;;;;;;;17.13;7.85;;;;;;;20.57;44.17;101346.31;5048893;28;20087;-50
2021/06/02 08:30:42;;;;;;;11.88;7.55;;;;;;;20.60;42.71;101348.41;5050049;28;20470;-49
2021/06/02 08:33:10;;;;;;;11.38;6.70;;;;;;;20.65;42.47;101339.97;5048441;28;20049;-49
2021/06/02 08:35:37;;;;;;;13.38;7.32;;;;;;;20.73;42.92;101341.91;5048466;28;20226;-47
2021/06/02 08:38:05;;;;;;;15.43;6.15;;;;;;;20.81;43.21;101338.34;5053160;28;20033;-48
2021/06/02 08:40:33;;;;;;;12.25;7.03;;;;;;;20.84;43.06;101337.69;5053339;28;20044;-50
2021/06/02 08:43:01;;;;;;;13.02;5.55;;;;;;;20.91;41.87;101336.41;5054248;28;20048;-49
2021/06/02 08:45:29;;;;;;;9.27;5.40;;;;;;;20.95;41.36;101337.34;5049030;28;20041;-49
2021/06/02 08:47:56;;;;;;;10.00;5.20;;;;;;;20.96;41.10;101337.03;5046620;28;20041;-48
2021/06/02 08:50:24;;;;;;;8.38;5.00;;;;;;;21.00;41.53;101340.00;5044910;28;20063;-50
2021/06/02 08:52:52;;;;;;;11.02;4.90;;;;;;;21.06;40.61;101333.94;5049864;28;20045;-47
2021/06/02 08:55:21;;;;;;;8.63;4.85;;;;;;;21.15;40.96;101335.91;5043539;28;20037;-46
2021/06/02 08:57:50;;;;;;;9.10;5.05;;;;;;;21.24;40.91;101339.50;5047029;28;20083;-46
2021/06/02 09:00:21;;;;;;;9.35;4.78;;;;;;;21.32;39.20;101335.06;5050864;28;20056;-47
2021/06/02 09:02:57;;;;;;;7.32;3.78;;;;;;;21.39;36.87;101333.44;5050818;28;20494;-49
2021/06/02 09:05:25;;;;;;;21.20;4.70;;;;;;;21.47;37.84;101331.81;5052847;28;20041;-47
2021/06/02 09:07:54;;;;;;;10.05;4.03;;;;;;;21.48;39.39;101330.69;5049889;28;20045;-53
2021/06/02 09:10:24;;;;;;;7.82;4.32;;;;;;;21.52;37.91;101334.41;5052440;28;20045;-49
2021/06/02 09:12:58;;;;;;;9.80;3.75;;;;;;;21.56;38.88;101332.59;5047256;28;20049;-48
2021/06/02 09:15:32;;;;;;;7.65;4.05;;;;;;;21.62;38.79;101324.91;5049988;28;20457;-49
2021/06/02 09:18:04;;;;;;;7.00;3.47;;;;;;;21.60;38.66;101325.25;5051820;28;20087;-52
2021/06/02 09:20:46;;;;;;;7.85;3.38;;;;;;;21.66;37.59;101325.88;5051738;28;20049;-50
2021/06/02 09:23:30;;;;;;;11.32;4.22;;;;;;;21.77;38.36;101324.38;5050403;28;20077;-48
2021/06/02 09:26:14;;;;;;;8.20;3.70;;;;;;;21.83;38.11;101334.13;5049832;28;20040;-48
2021/06/02 09:28:53;;;;;;;6.35;3.10;;;;;;;21.80;37.44;101328.47;5052090;28;20499;-51
2021/06/02 09:31:26;;;;;;;6.53;3.22;;;;;;;21.79;36.73;101335.13;5052097;28;20045;-49
2021/06/02 09:33:59;;;;;;;9.30;3.30;;;;;;;21.86;36.47;101332.66;5050287;28;20099;-51
2021/06/02 09:36:29;;;;;;;7.00;3.08;;;;;;;21.87;36.16;101334.31;5050741;28;20045;-51
2021/06/02 09:38:59;;;;;;;8.85;3.03;;;;;;;21.87;35.93;101325.97;5051574;28;20045;-51
2021/06/02 09:41:32;;;;;;;8.10;3.60;;;;;;;21.95;35.93;101325.13;5049815;28;20124;-52
2021/06/02 09:44:21;;;;;;;8.23;3.25;;;;;;;22.00;35.95;101327.69;5034554;28;20486;-52
2021/06/02 09:47:00;;;;;;;9.00;3.45;;;;;;;22.04;36.32;101317.56;5046934;28;20552;-50
2021/06/02 09:49:29;;;;;;;9.77;4.65;;;;;;;22.09;35.99;101320.16;5052325;28;20052;-52
2021/06/02 09:51:57;;;;;;;7.35;3.78;;;;;;;22.11;35.95;101323.41;5049311;28;20099;-50
2021/06/02 09:54:25;;;;;;;8.65;3.10;;;;;;;22.23;35.92;101319.97;5041974;28;20037;-49
2021/06/02 09:56:52;;;;;;;10.80;4.20;;;;;;;22.35;35.61;101324.00;5042024;28;20068;-48
2021/06/02 09:59:20;;;;;;;7.90;3.60;;;;;;;22.46;35.28;101312.13;5048670;28;20053;-49
2021/06/02 10:01:59;;;;;;;10.05;3.10;;;;;;;22.56;35.04;101316.47;5051038;28;20044;-51
2021/06/02 10:04:34;;;;;;;9.57;3.50;;;;;;;22.59;34.57;101326.13;5049481;28;20045;-50
2021/06/02 10:07:04;;;;;;;7.35;3.80;;;;;;;22.61;34.83;101324.63;5051856;28;20551;-48
2021/06/02 10:09:33;;;;;;;9.52;3.85;;;;;;;22.68;35.05;101321.28;5036815;28;20045;-47
2021/06/02 10:12:04;;;;;;;6.82;3.42;;;;;;;22.70;34.25;101307.88;5049143;28;20052;-49
2021/06/02 10:14:39;;;;;;;9.77;3.63;;;;;;;22.72;32.87;101313.91;5051516;28;20549;-51
2021/06/02 10:17:25;;;;;;;7.55;3.28;;;;;;;22.73;32.80;101304.44;5048601;28;20091;-51
2021/06/02 10:19:58;;;;;;;10.30;3.65;;;;;;;22.75;32.93;101308.50;5049991;28;20052;-48
2021/06/02 10:22:30;;;;;;;8.32;3.47;;;;;;;22.75;33.35;101311.28;5046307;28;20089;-49
2021/06/02 10:25:00;;;;;;;5.55;3.20;;;;;;;22.73;33.28;101304.44;5040589;28;20376;-51
2021/06/02 10:27:29;;;;;;;7.90;3.10;;;;;;;22.69;33.88;101311.81;5051256;28;20037;-49
2021/06/02 10:29:57;;;;;;;8.80;3.50;;;;;;;22.76;32.35;101298.19;4349240;28;10000699;-50
2021/06/02 10:32:26;;;;;;;7.90;3.90;;;;;;;22.81;33.04;101316.63;5048096;28;20061;-49
2021/06/02 10:34:54;;;;;;;10.30;3.65;;;;;;;22.83;33.10;101312.38;5048232;28;20068;-50
2021/06/02 10:37:23;;;;;;;9.93;3.42;;;;;;;22.80;33.21;101307.50;5047082;28;20396;-49
2021/06/02 10:39:57;;;;;;;6.53;3.40;;;;;;;22.88;33.62;101303.81;5048694;28;20053;-49
2021/06/02 10:42:34;;;;;;;6.30;3.28;;;;;;;22.94;33.89;101309.97;5049032;28;20060;-50
2021/06/02 10:45:18;;;;;;;10.98;3.20;;;;;;;23.02;33.35;101306.34;5046875;28;20045;-51
2021/06/02 10:47:53;;;;;;;7.80;3.10;;;;;;;23.06;32.84;101309.25;5046091;28;20566;-51
2021/06/02 10:50:35;;;;;;;8.77;3.13;;;;;;;23.05;32.36;101311.22;5048600;28;20049;-50
2021/06/02 10:53:24;;;;;;;5.30;2.70;;;;;;;23.06;31.40;101306.47;5038258;28;20048;-49
2021/06/02 10:55:58;;;;;;;14.10;3.03;;;;;;;23.10;31.56;101310.19;5043129;28;20037;-52
2021/06/02 10:58:26;;;;;;;8.00;2.90;;;;;;;23.08;31.67;101302.19;5052833;28;20056;-47
2021/06/02 11:01:09;;;;;;;7.85;3.15;;;;;;;23.08;32.29;101298.59;5049707;28;20145;-49
2021/06/02 11:03:39;;;;;;;6.43;3.00;;;;;;;23.11;32.48;101303.47;5048554;28;20589;-49
2021/06/02 11:06:15;;;;;;;5.20;3.03;;;;;;;23.18;31.63;101303.72;5050853;28;20052;-51
2021/06/02 11:08:50;;;;;;;6.82;3.10;;;;;;;23.20;30.16;101301.41;5051034;28;20049;-52
2021/06/02 11:11:25;;;;;;;5.30;2.97;;;;;;;23.23;30.75;101295.16;5050186;28;20060;-47
2021/06/02 11:14:15;;;;;;;8.88;2.95;;;;;;;23.32;30.52;101292.31;5050532;28;20049;-49
2021/06/02 11:16:44;;;;;;;6.68;3.03;;;;;;;23.39;31.06;101287.81;5049970;28;20076;-49
2021/06/02 11:19:18;;;;;;;7.95;2.80;;;;;;;23.40;30.66;101291.38;5051299;28;20037;-50
2021/06/02 11:21:52;;;;;;;11.50;3.35;;;;;;;23.49;31.63;101294.09;5051770;28;20072;-46
2021/06/02 11:24:32;;;;;;;8.40;3.08;;;;;;;23.57;30.87;101284.81;5046997;28;20044;-49
2021/06/02 11:29:51;;;;;;;7.93;3.10;;;;;;;23.60;30.82;101286.94;5042470;28;20045;-53
2021/06/02 11:32:30;;;;;;;8.70;2.95;;;;;;;23.75;31.66;101288.25;5052716;28;20102;-47
2021/06/02 11:35:05;;;;;;;5.65;3.03;;;;;;;23.76;30.43;101289.84;5053683;28;20052;-51
2021/06/02 11:37:35;;;;;;;9.18;3.33;;;;;;;23.71;29.47;101288.09;5052322;28;20099;-48
2021/06/02 11:40:05;;;;;;;5.30;2.80;;;;;;;23.65;29.78;101286.69;5054083;28;20056;-49
2021/06/02 11:42:43;;;;;;;8.25;2.95;;;;;;;23.70;29.60;101286.47;5051436;28;20134;-52
2021/06/02 11:45:28;;;;;;;6.05;3.10;;;;;;;23.70;30.24;101286.47;5054273;28;20103;-51
2021/06/02 11:47:56;;;;;;;7.07;2.80;;;;;;;23.74;30.21;101292.19;5051487;28;20041;-51
2021/06/02 11:50:25;;;;;;;4.75;2.80;;;;;;;23.87;29.06;101290.22;5050966;28;20041;-51
2021/06/02 11:52:59;;;;;;;21.30;14.13;;;;;;;23.92;29.68;101287.22;5053109;28;20061;-50
2021/06/02 11:55:28;;;;;;;10.95;4.55;;;;;;;23.88;30.78;101280.72;5044632;28;20416;-48
2021/06/02 11:57:55;;;;;;;5.75;2.70;;;;;;;24.00;29.40;101284.31;5041418;28;20045;-49
2021/06/02 12:00:33;;;;;;;8.93;3.53;;;;;;;24.03;29.87;101286.41;5046780;28;20797;-49
2021/06/02 12:03:04;;;;;;;7.20;2.97;;;;;;;24.06;29.29;101282.13;5052103;28;20045;-50
2021/06/02 12:05:34;;;;;;;11.48;2.90;;;;;;;24.15;28.62;101277.25;5053322;28;20072;-49
2021/06/02 12:08:13;;;;;;;6.18;2.65;;;;;;;24.23;28.72;101275.47;5050304;28;20052;-51
2021/06/02 12:10:48;;;;;;;8.65;3.20;;;;;;;24.23;29.34;101276.28;5053555;28;20041;-47